createdAt,value
2022-10-18T00:00:10.541Z,15.95
2022-10-18T00:01:06.199Z,15.92
2022-10-18T00:02:08.503Z,15.93
2022-10-18T00:03:09.629Z,15.92
2022-10-18T00:04:06.674Z,15.88
2022-10-18T00:05:07.842Z,15.86
2022-10-18T00:06:09.088Z,15.85
2022-10-18T00:07:08.102Z,15.85
2022-10-18T00:08:06.162Z,15.86
2022-10-18T00:09:10.450Z,15.85
2022-10-18T00:10:06.430Z,15.88
2022-10-18T00:11:08.645Z,15.86
2022-10-18T00:12:08.908Z,15.86
2022-10-18T00:13:06.943Z,15.88
2022-10-18T00:14:09.165Z,15.86
2022-10-18T00:15:09.331Z,15.85
2022-10-18T00:16:06.346Z,15.80
2022-10-18T00:17:09.652Z,15.81
2022-10-18T00:18:06.633Z,15.80
2022-10-18T00:19:08.851Z,15.80
2022-10-18T00:20:10.033Z,15.81
2022-10-18T00:21:06.006Z,15.81
2022-10-18T00:22:10.361Z,15.81
2022-10-18T00:23:08.433Z,15.81
2022-10-18T00:24:09.573Z,15.81
2022-10-18T00:25:08.682Z,15.85
2022-10-18T00:26:07.776Z,15.84
2022-10-18T00:27:08.960Z,15.85
2022-10-18T00:28:09.177Z,15.85
2022-10-18T00:29:08.195Z,15.85
2022-10-18T00:30:06.245Z,15.84
2022-10-18T00:31:08.472Z,15.85
2022-10-18T00:32:06.553Z,15.81
2022-10-18T00:33:08.804Z,15.80
2022-10-18T00:34:08.001Z,15.78
2022-10-18T00:35:07.013Z,15.77
2022-10-18T00:36:07.153Z,15.81
2022-10-18T00:37:07.338Z,15.81
2022-10-18T00:38:07.457Z,15.80
2022-10-18T00:39:06.561Z,15.80
2022-10-18T00:40:07.015Z,15.81
2022-10-18T00:41:05.816Z,15.80
2022-10-18T00:42:05.953Z,15.80
2022-10-18T00:43:07.147Z,15.81
2022-10-18T00:44:06.266Z,15.84
2022-10-18T00:45:06.441Z,15.84
2022-10-18T00:46:06.577Z,15.81
2022-10-18T00:47:08.706Z,15.84
2022-10-18T00:48:06.867Z,15.80
2022-10-18T00:49:05.961Z,15.84
2022-10-18T00:50:07.152Z,15.84
2022-10-18T00:51:07.276Z,15.81
2022-10-18T00:52:06.391Z,15.80
2022-10-18T00:53:07.569Z,15.81
2022-10-18T00:54:05.626Z,15.80
2022-10-18T00:55:05.768Z,15.81
2022-10-18T00:56:06.942Z,15.78
2022-10-18T00:57:07.131Z,15.78
2022-10-18T00:58:06.180Z,15.77
2022-10-18T00:59:07.367Z,15.77
2022-10-18T01:00:07.506Z,15.77
2022-10-18T01:01:05.583Z,15.76
2022-10-18T01:02:06.973Z,15.76
2022-10-18T01:03:05.902Z,15.77
2022-10-18T01:04:06.046Z,15.77
2022-10-18T01:05:07.245Z,15.78
2022-10-18T01:06:07.380Z,15.77
2022-10-18T01:07:06.509Z,15.76
2022-10-18T01:08:13.076Z,15.76
2022-10-18T01:09:05.761Z,15.74
2022-10-18T01:10:06.941Z,15.73
2022-10-18T01:11:06.050Z,15.74
2022-10-18T01:12:06.620Z,15.73
2022-10-18T01:13:05.754Z,15.73
2022-10-18T01:14:06.999Z,15.70
2022-10-18T01:15:06.075Z,15.70
2022-10-18T01:16:05.185Z,15.67
2022-10-18T01:17:07.435Z,15.68
2022-10-18T01:18:07.538Z,15.68
2022-10-18T01:19:05.595Z,15.67
2022-10-18T01:20:06.755Z,15.66
2022-10-18T01:21:05.883Z,15.66
2022-10-18T01:22:06.033Z,15.68
2022-10-18T01:23:05.145Z,15.68
2022-10-18T01:24:05.332Z,15.71
2022-10-18T01:25:06.434Z,15.70
2022-10-18T01:26:07.184Z,15.68
2022-10-18T01:27:06.707Z,15.68
2022-10-18T01:28:06.844Z,15.70
2022-10-18T01:29:07.036Z,15.70
2022-10-18T01:30:07.113Z,15.70
2022-10-18T01:31:07.263Z,15.70
2022-10-18T01:32:07.394Z,15.68
2022-10-18T01:33:06.492Z,15.67
2022-10-18T01:34:06.631Z,15.68
2022-10-18T01:35:05.742Z,15.70
2022-10-18T01:36:06.927Z,15.68
2022-10-18T01:37:07.635Z,15.68
2022-10-18T01:38:12.368Z,15.71
2022-10-18T01:39:07.336Z,15.71
2022-10-18T01:40:05.407Z,15.68
2022-10-18T01:41:05.544Z,15.68
2022-10-18T01:42:06.265Z,15.68
2022-10-18T01:44:07.245Z,15.68
2022-10-18T01:45:06.341Z,15.68
2022-10-18T01:46:05.459Z,15.67
2022-10-18T01:47:06.827Z,15.66
2022-10-18T01:48:06.752Z,15.68
2022-10-18T01:49:04.817Z,15.68
2022-10-18T01:50:07.017Z,15.68
2022-10-18T01:51:06.496Z,15.67
2022-10-18T01:52:05.636Z,15.68
2022-10-18T01:53:06.407Z,15.67
2022-10-18T01:54:06.843Z,15.66
2022-10-18T01:55:06.977Z,15.67
2022-10-18T01:56:07.114Z,15.66
2022-10-18T01:57:06.204Z,15.67
2022-10-18T01:58:06.347Z,15.67
2022-10-18T01:59:07.868Z,15.64
2022-10-18T02:00:06.614Z,15.62
2022-10-18T02:01:05.763Z,15.64
2022-10-18T02:02:05.849Z,15.66
2022-10-18T02:03:06.008Z,15.64
2022-10-18T02:04:05.117Z,15.64
2022-10-18T02:05:06.315Z,15.66
2022-10-18T02:06:06.428Z,15.67
2022-10-18T02:07:05.548Z,15.66
2022-10-18T02:08:22.064Z,15.67
2022-10-18T02:09:05.807Z,15.67
2022-10-18T02:10:06.016Z,15.67
2022-10-18T02:11:07.620Z,15.67
2022-10-18T02:12:05.220Z,15.68
2022-10-18T02:13:06.393Z,15.68
2022-10-18T02:14:04.447Z,15.70
2022-10-18T02:15:06.695Z,15.68
2022-10-18T02:16:06.827Z,15.68
2022-10-18T02:17:06.299Z,15.68
2022-10-18T02:18:05.041Z,15.66
2022-10-18T02:19:06.220Z,15.62
2022-10-18T02:20:05.350Z,15.64
2022-10-18T02:21:04.431Z,15.60
2022-10-18T02:22:04.567Z,15.62
2022-10-18T02:23:06.784Z,15.62
2022-10-18T02:24:04.840Z,15.66
2022-10-18T02:25:05.007Z,15.66
2022-10-18T02:26:05.173Z,15.64
2022-10-18T02:27:06.344Z,15.62
2022-10-18T02:28:04.416Z,15.62
2022-10-18T02:29:06.330Z,15.64
2022-10-18T02:30:04.689Z,15.64
2022-10-18T02:31:04.868Z,15.62
2022-10-18T02:32:05.005Z,15.64
2022-10-18T02:33:05.175Z,15.64
2022-10-18T02:34:04.294Z,15.60
2022-10-18T02:35:06.383Z,15.62
2022-10-18T02:36:05.681Z,15.62
2022-10-18T02:37:04.821Z,15.66
2022-10-18T02:38:04.999Z,15.66
2022-10-18T02:39:05.131Z,15.66
2022-10-18T02:40:04.271Z,15.62
2022-10-18T02:41:06.525Z,15.64
2022-10-18T02:42:04.581Z,15.64
2022-10-18T02:43:04.753Z,15.60
2022-10-18T02:44:04.924Z,15.60
2022-10-18T02:45:06.135Z,15.59
2022-10-18T02:46:05.244Z,15.60
2022-10-18T02:47:06.356Z,15.60
2022-10-18T02:48:04.522Z,15.62
2022-10-18T02:49:10.902Z,15.60
2022-10-18T02:50:04.844Z,15.62
2022-10-18T02:51:05.007Z,15.62
2022-10-18T02:52:06.155Z,15.64
2022-10-18T02:53:06.317Z,15.66
2022-10-18T02:54:05.432Z,15.67
2022-10-18T02:55:04.556Z,15.67
2022-10-18T02:56:04.715Z,15.67
2022-10-18T02:57:05.887Z,15.67
2022-10-18T02:58:05.032Z,15.67
2022-10-18T02:59:06.745Z,15.68
2022-10-18T03:00:04.267Z,15.68
2022-10-18T03:01:04.426Z,15.71
2022-10-18T03:02:05.607Z,15.71
2022-10-18T03:03:04.729Z,15.73
2022-10-18T03:04:04.892Z,15.74
2022-10-18T03:05:06.504Z,15.73
2022-10-18T03:06:04.158Z,15.68
2022-10-18T03:07:04.324Z,15.62
2022-10-18T03:08:04.468Z,15.59
2022-10-18T03:09:34.671Z,15.56
2022-10-18T03:10:03.707Z,15.56
2022-10-18T03:11:03.910Z,15.56
2022-10-18T03:12:11.270Z,15.55
2022-10-18T03:13:04.122Z,15.52
2022-10-18T03:14:04.250Z,15.51
2022-10-18T03:15:04.390Z,15.51
2022-10-18T03:16:07.181Z,15.53
2022-10-18T03:17:03.617Z,15.51
2022-10-18T03:18:05.808Z,15.49
2022-10-18T03:19:05.949Z,15.46
2022-10-18T03:20:06.102Z,15.43
2022-10-18T03:21:05.197Z,15.41
2022-10-18T03:22:04.365Z,15.38
2022-10-18T03:23:04.493Z,15.40
2022-10-18T03:24:04.581Z,15.38
2022-10-18T03:25:04.751Z,15.37
2022-10-18T03:26:03.871Z,15.37
2022-10-18T03:27:03.990Z,15.37
2022-10-18T03:28:04.191Z,15.35
2022-10-18T03:29:04.379Z,15.34
2022-10-18T03:30:03.449Z,15.37
2022-10-18T03:31:04.636Z,15.38
2022-10-18T03:32:05.840Z,15.40
2022-10-18T03:33:06.289Z,15.41
2022-10-18T03:34:05.099Z,15.41
2022-10-18T03:35:05.243Z,15.44
2022-10-18T03:36:05.399Z,15.41
2022-10-18T03:37:05.628Z,15.40
2022-10-18T03:38:10.352Z,15.41
2022-10-18T03:39:04.215Z,15.43
2022-10-18T03:40:05.378Z,15.44
2022-10-18T03:41:05.522Z,15.48
2022-10-18T03:42:05.635Z,15.49
2022-10-18T03:43:05.782Z,15.51
2022-10-18T03:44:06.365Z,15.51
2022-10-18T03:45:05.015Z,15.51
2022-10-18T03:46:04.142Z,15.52
2022-10-18T03:47:05.327Z,15.49
2022-10-18T03:48:04.426Z,15.51
2022-10-18T03:49:04.574Z,15.49
2022-10-18T03:50:06.315Z,15.51
2022-10-18T03:51:04.901Z,15.49
2022-10-18T03:52:03.984Z,15.51
2022-10-18T03:53:04.194Z,15.52
2022-10-18T03:54:04.295Z,15.52
2022-10-18T03:55:04.431Z,15.52
2022-10-18T03:56:09.964Z,15.53
2022-10-18T03:57:03.656Z,15.53
2022-10-18T03:58:04.835Z,15.52
2022-10-18T03:59:04.970Z,15.53
2022-10-18T04:00:03.036Z,15.52
2022-10-18T04:01:03.193Z,15.53
2022-10-18T04:02:03.468Z,15.53
2022-10-18T04:03:04.516Z,15.53
2022-10-18T04:04:03.617Z,15.53
2022-10-18T04:05:03.759Z,15.53
2022-10-18T04:06:04.944Z,15.55
2022-10-18T04:07:04.064Z,15.51
2022-10-18T04:08:04.208Z,15.53
2022-10-18T04:09:07.860Z,15.52
2022-10-18T04:10:04.036Z,15.55
2022-10-18T04:11:03.212Z,15.56
2022-10-18T04:12:03.393Z,15.58
2022-10-18T04:13:06.468Z,15.60
2022-10-18T04:14:04.747Z,15.59
2022-10-18T04:15:04.033Z,15.56
2022-10-18T04:16:03.108Z,15.60
2022-10-18T04:17:03.228Z,15.58
2022-10-18T04:18:04.391Z,15.59
2022-10-18T04:19:03.588Z,15.60
2022-10-18T04:20:03.654Z,15.59
2022-10-18T04:21:03.807Z,15.59
2022-10-18T04:22:02.911Z,15.60
2022-10-18T04:23:04.129Z,15.58
2022-10-18T04:24:03.231Z,15.58
2022-10-18T04:25:03.439Z,15.58
2022-10-18T04:26:04.500Z,15.56
2022-10-18T04:27:02.752Z,15.55
2022-10-18T04:28:02.829Z,15.53
2022-10-18T04:29:03.088Z,15.55
2022-10-18T04:30:04.205Z,15.52
2022-10-18T04:31:03.323Z,15.55
2022-10-18T04:32:03.472Z,15.52
2022-10-18T04:33:02.662Z,15.53
2022-10-18T04:34:02.768Z,15.53
2022-10-18T04:35:03.942Z,15.52
2022-10-18T04:36:02.941Z,15.56
2022-10-18T04:37:03.061Z,15.55
2022-10-18T04:38:04.155Z,15.55
2022-10-18T04:39:05.469Z,15.55
2022-10-18T04:40:04.501Z,15.55
2022-10-18T04:41:03.635Z,15.53
2022-10-18T04:42:02.680Z,15.56
2022-10-18T04:43:02.812Z,15.58
2022-10-18T04:44:02.949Z,15.58
2022-10-18T04:45:04.121Z,15.56
2022-10-18T04:46:04.251Z,15.56
2022-10-18T04:47:02.325Z,15.55
2022-10-18T04:48:09.730Z,15.55
2022-10-18T04:49:02.582Z,15.58
2022-10-18T04:50:02.715Z,15.58
2022-10-18T04:51:02.849Z,15.59
2022-10-18T04:52:03.015Z,15.59
2022-10-18T04:53:03.097Z,15.58
2022-10-18T04:54:03.249Z,15.58
2022-10-18T04:55:03.403Z,15.56
2022-10-18T04:56:04.593Z,15.58
2022-10-18T04:57:03.784Z,15.59
2022-10-18T04:58:02.823Z,15.60
2022-10-18T04:59:17.516Z,15.59
2022-10-18T05:00:04.269Z,15.58
2022-10-18T05:01:03.303Z,15.58
2022-10-18T05:03:06.281Z,15.59
2022-10-18T05:04:04.810Z,15.60
2022-10-18T05:05:02.930Z,15.60
2022-10-18T05:06:03.689Z,15.60
2022-10-18T05:07:04.232Z,15.60
2022-10-18T05:08:04.357Z,15.59
2022-10-18T05:09:29.449Z,15.60
2022-10-18T05:10:04.675Z,15.59
2022-10-18T05:11:02.781Z,15.58
2022-10-18T05:12:02.885Z,15.58
2022-10-18T05:13:01.992Z,15.56
2022-10-18T05:14:04.227Z,15.55
2022-10-18T05:15:06.581Z,15.53
2022-10-18T05:16:02.444Z,15.55
2022-10-18T05:17:02.616Z,15.55
2022-10-18T05:18:02.739Z,15.53
2022-10-18T05:19:01.867Z,15.53
2022-10-18T05:20:03.124Z,15.52
2022-10-18T05:21:02.232Z,15.51
2022-10-18T05:22:02.308Z,15.51
2022-10-18T05:23:03.517Z,15.49
2022-10-18T05:24:03.664Z,15.51
2022-10-18T05:25:02.758Z,15.48
2022-10-18T05:26:02.937Z,15.48
2022-10-18T05:27:02.003Z,15.46
2022-10-18T05:28:10.651Z,15.46
2022-10-18T05:29:03.397Z,15.46
2022-10-18T05:30:05.720Z,15.46
2022-10-18T05:31:02.571Z,15.44
2022-10-18T05:32:02.738Z,15.44
2022-10-18T05:33:02.839Z,15.44
2022-10-18T05:34:01.962Z,15.46
2022-10-18T05:35:03.137Z,15.46
2022-10-18T05:36:02.222Z,15.46
2022-10-18T05:37:02.361Z,15.44
2022-10-18T05:38:02.515Z,15.46
2022-10-18T05:39:05.017Z,15.43
2022-10-18T05:40:02.744Z,15.43
2022-10-18T05:41:02.869Z,15.44
2022-10-18T05:42:02.984Z,15.43
2022-10-18T05:43:02.081Z,15.44
2022-10-18T05:44:02.232Z,15.44
2022-10-18T05:45:02.366Z,15.44
2022-10-18T05:46:02.461Z,15.43
2022-10-18T05:47:01.578Z,15.43
2022-10-18T05:48:01.698Z,15.43
2022-10-18T05:49:01.818Z,15.41
2022-10-18T05:50:02.069Z,15.40
2022-10-18T05:51:04.183Z,15.41
2022-10-18T05:52:02.309Z,15.41
2022-10-18T05:53:12.048Z,15.40
2022-10-18T05:54:03.513Z,15.40
2022-10-18T05:55:02.733Z,15.37
2022-10-18T05:56:01.751Z,15.37
2022-10-18T05:57:02.939Z,15.31
2022-10-18T05:58:02.027Z,15.33
2022-10-18T05:59:02.163Z,15.30
2022-10-18T06:00:03.373Z,15.30
2022-10-18T06:01:03.492Z,15.27
2022-10-18T06:02:02.587Z,15.27
2022-10-18T06:03:01.683Z,15.27
2022-10-18T06:04:02.868Z,15.28
2022-10-18T06:05:03.028Z,15.27
2022-10-18T06:06:02.214Z,15.27
2022-10-18T06:07:01.252Z,15.27
2022-10-18T06:08:04.216Z,15.27
2022-10-18T06:09:26.418Z,15.30
2022-10-18T06:10:01.744Z,15.28
2022-10-18T06:11:01.815Z,15.28
2022-10-18T06:12:02.054Z,15.27
2022-10-18T06:13:03.146Z,15.27
2022-10-18T06:14:03.386Z,15.25
2022-10-18T06:15:02.465Z,15.23
2022-10-18T06:16:02.584Z,15.23
2022-10-18T06:17:01.718Z,15.25
2022-10-18T06:18:01.828Z,15.25
2022-10-18T06:19:01.933Z,15.25
2022-10-18T06:20:02.077Z,15.25
2022-10-18T06:21:02.199Z,15.25
2022-10-18T06:22:02.348Z,15.25
2022-10-18T06:23:02.603Z,15.27
2022-10-18T06:24:02.633Z,15.28
2022-10-18T06:25:02.776Z,15.27
2022-10-18T06:26:01.949Z,15.27
2022-10-18T06:27:01.056Z,15.27
2022-10-18T06:28:01.212Z,15.27
2022-10-18T06:29:01.456Z,15.28
2022-10-18T06:30:01.440Z,15.25
2022-10-18T06:31:01.591Z,15.27
2022-10-18T06:32:01.717Z,15.27
2022-10-18T06:33:01.938Z,15.27
2022-10-18T06:34:03.082Z,15.28
2022-10-18T06:35:01.121Z,15.27
2022-10-18T06:36:01.278Z,15.27
2022-10-18T06:37:01.421Z,15.27
2022-10-18T06:38:01.661Z,15.28
2022-10-18T06:39:01.796Z,15.31
2022-10-18T06:40:02.057Z,15.30
2022-10-18T06:41:02.091Z,15.31
2022-10-18T06:42:02.235Z,15.31
2022-10-18T06:43:19.633Z,15.31
2022-10-18T06:44:02.490Z,15.31
2022-10-18T06:45:02.744Z,15.33
2022-10-18T06:46:00.852Z,15.35
2022-10-18T06:47:01.865Z,15.34
2022-10-18T06:48:08.454Z,15.35
2022-10-18T06:49:01.225Z,15.35
2022-10-18T06:50:02.783Z,15.35
2022-10-18T06:51:02.591Z,15.38
2022-10-18T06:52:01.510Z,15.38
2022-10-18T06:53:02.861Z,15.38
2022-10-18T06:54:16.791Z,15.34
2022-10-18T06:55:08.402Z,15.31
2022-10-18T06:56:01.262Z,15.33
2022-10-18T06:57:01.435Z,15.25
2022-10-18T06:58:01.557Z,15.30
2022-10-18T06:59:02.740Z,15.30
2022-10-18T07:00:01.853Z,15.28
2022-10-18T07:01:00.951Z,15.28
2022-10-18T07:02:02.261Z,15.30
2022-10-18T07:03:01.263Z,15.30
2022-10-18T07:04:02.451Z,15.28
2022-10-18T07:05:00.534Z,15.30
2022-10-18T07:06:00.693Z,15.30
2022-10-18T07:07:00.825Z,15.33
2022-10-18T07:08:08.305Z,15.34
2022-10-18T07:09:01.106Z,15.34
2022-10-18T07:10:01.249Z,15.35
2022-10-18T07:11:01.387Z,15.37
2022-10-18T07:12:28.474Z,15.37
2022-10-18T07:13:27.363Z,15.37
2022-10-18T07:14:03.271Z,15.38
2022-10-18T07:15:03.427Z,15.40
2022-10-18T07:16:01.218Z,15.40
2022-10-18T07:17:01.201Z,15.37
2022-10-18T07:18:00.819Z,15.38
2022-10-18T07:19:01.528Z,15.40
2022-10-18T07:20:02.734Z,15.40
2022-10-18T07:21:01.874Z,15.40
2022-10-18T07:22:00.947Z,15.40
2022-10-18T07:23:01.056Z,15.41
2022-10-18T07:24:01.219Z,15.43
2022-10-18T07:25:00.311Z,15.44
2022-10-18T07:26:00.665Z,15.44
2022-10-18T07:27:01.803Z,15.44
2022-10-18T07:28:00.753Z,15.46
2022-10-18T07:29:00.936Z,15.46
2022-10-18T07:30:01.172Z,15.46
2022-10-18T07:31:05.240Z,15.49
2022-10-18T07:32:02.378Z,15.49
2022-10-18T07:33:00.458Z,15.51
2022-10-18T07:34:01.659Z,15.49
2022-10-18T07:35:00.924Z,15.51
2022-10-18T07:36:01.642Z,15.52
2022-10-18T07:37:01.126Z,15.52
2022-10-18T07:38:00.242Z,15.52
2022-10-18T07:39:00.236Z,15.55
2022-10-18T07:40:00.424Z,15.56
2022-10-18T07:41:01.605Z,15.62
2022-10-18T07:42:01.792Z,15.62
2022-10-18T07:43:04.610Z,15.62
2022-10-18T07:44:02.012Z,15.62
2022-10-18T07:45:01.127Z,15.66
2022-10-18T07:46:00.399Z,15.64
2022-10-18T07:47:00.396Z,15.66
2022-10-18T07:48:00.697Z,15.67
2022-10-18T07:49:01.743Z,15.68
2022-10-18T07:50:00.830Z,15.68
2022-10-18T07:51:00.025Z,15.68
2022-10-18T07:52:00.040Z,15.68
2022-10-18T07:53:33.442Z,15.71
2022-10-18T07:54:00.341Z,15.74
2022-10-18T07:55:00.493Z,15.76
2022-10-18T07:56:04.520Z,15.76
2022-10-18T07:57:01.798Z,15.77
2022-10-18T07:58:00.141Z,15.76
2022-10-18T07:59:00.082Z,15.78
2022-10-18T08:00:00.203Z,15.77
2022-10-18T08:01:00.389Z,15.77
2022-10-18T08:02:00.519Z,15.80
2022-10-18T08:03:00.618Z,15.80
2022-10-18T08:04:06.061Z,15.84
2022-10-18T08:05:00.914Z,15.84
2022-10-18T08:06:00.056Z,15.84
2022-10-18T08:07:00.317Z,15.85
2022-10-18T08:08:03.058Z,15.86
2022-10-18T08:09:01.502Z,15.86
2022-10-18T08:10:39.982Z,15.81
2022-10-18T08:10:59.681Z,15.78
2022-10-18T08:11:59.826Z,15.77
2022-10-18T08:13:01.014Z,15.76
2022-10-18T08:14:00.110Z,15.78
2022-10-18T08:15:00.411Z,15.78
2022-10-18T08:16:01.346Z,15.78
2022-10-18T08:16:59.523Z,15.74
2022-10-18T08:18:03.653Z,15.76
2022-10-18T08:19:02.932Z,15.78
2022-10-18T08:20:11.850Z,15.78
2022-10-18T08:21:02.182Z,15.78
2022-10-18T08:22:00.256Z,15.84
2022-10-18T08:23:00.904Z,15.84
2022-10-18T08:24:00.520Z,15.86
2022-10-18T08:24:59.645Z,15.85
2022-10-18T08:26:01.725Z,15.89
2022-10-18T08:27:00.958Z,15.89
2022-10-18T08:28:00.008Z,15.91
2022-10-18T08:29:29.151Z,15.96
2022-10-18T08:30:01.360Z,15.93
2022-10-18T08:31:25.333Z,15.95
2022-10-18T08:31:59.525Z,15.93
2022-10-18T08:32:59.717Z,15.95
2022-10-18T08:33:59.850Z,15.95
2022-10-18T08:35:00.762Z,15.95
2022-10-18T08:36:00.128Z,15.93
2022-10-18T08:37:01.369Z,15.96
2022-10-18T08:37:59.337Z,15.99
2022-10-18T08:39:02.645Z,16.03
2022-10-18T08:40:00.594Z,15.99
2022-10-18T08:40:59.690Z,16.03
2022-10-18T08:41:59.863Z,16.04
2022-10-18T08:42:59.990Z,16.10
2022-10-18T08:44:02.166Z,16.11
2022-10-18T08:45:08.275Z,16.17
2022-10-18T08:46:00.399Z,16.17
2022-10-18T08:47:00.559Z,16.14
2022-10-18T08:48:01.916Z,16.17
2022-10-18T08:49:01.806Z,16.18
2022-10-18T08:50:00.018Z,16.23
2022-10-18T08:51:00.130Z,16.17
2022-10-18T08:51:59.199Z,16.18
2022-10-18T08:53:01.454Z,16.22
2022-10-18T08:54:02.296Z,16.23
2022-10-18T08:54:59.593Z,16.22
2022-10-18T08:56:02.298Z,16.18
2022-10-18T08:57:00.907Z,16.22
2022-10-18T08:57:58.998Z,16.23
2022-10-18T08:59:00.191Z,16.26
2022-10-18T09:00:01.395Z,16.27
2022-10-18T09:01:01.735Z,16.30
2022-10-18T09:01:59.613Z,16.34
2022-10-18T09:03:00.839Z,16.40
2022-10-18T09:03:59.919Z,16.44
2022-10-18T09:04:59.029Z,16.42
2022-10-18T09:05:59.311Z,16.47
2022-10-18T09:07:00.453Z,16.52
2022-10-18T09:07:59.521Z,16.51
2022-10-18T09:09:01.682Z,16.52
2022-10-18T09:10:00.931Z,16.55
2022-10-18T09:12:02.069Z,16.51
2022-10-18T09:13:00.407Z,16.51
2022-10-18T09:14:00.495Z,16.54
2022-10-18T09:14:59.702Z,16.55
2022-10-18T09:15:58.736Z,16.59
2022-10-18T09:16:58.880Z,16.65
2022-10-18T09:18:00.084Z,16.62
2022-10-18T09:18:59.473Z,16.62
2022-10-18T09:20:13.903Z,16.60
2022-10-18T09:21:01.059Z,16.60
2022-10-18T09:21:58.656Z,16.60
2022-10-18T09:23:00.942Z,16.57
2022-10-18T09:24:00.062Z,16.57
2022-10-18T09:24:59.206Z,16.54
2022-10-18T09:25:59.433Z,16.55
2022-10-18T09:27:01.533Z,16.55
2022-10-18T09:27:58.700Z,16.51
2022-10-18T09:29:49.872Z,16.42
2022-10-18T09:29:59.047Z,16.44
2022-10-18T09:30:59.799Z,16.41
2022-10-18T09:31:59.356Z,16.40
2022-10-18T09:32:58.482Z,16.41
2022-10-18T09:33:59.709Z,16.40
2022-10-18T09:34:58.882Z,16.40
2022-10-18T09:35:58.962Z,16.42
2022-10-18T09:37:00.162Z,16.47
2022-10-18T09:37:59.296Z,16.42
2022-10-18T09:39:00.349Z,16.36
2022-10-18T09:39:58.606Z,16.36
2022-10-18T09:40:58.806Z,16.36
2022-10-18T09:41:59.998Z,16.37
2022-10-18T09:42:59.187Z,16.37
2022-10-18T09:43:59.303Z,16.41
2022-10-18T09:44:59.471Z,16.42
2022-10-18T09:45:58.596Z,16.41
2022-10-18T09:46:59.885Z,16.45
2022-10-18T09:47:59.004Z,16.42
2022-10-18T09:48:59.123Z,16.44
2022-10-18T09:50:00.427Z,16.48
2022-10-18T09:50:58.399Z,16.50
2022-10-18T09:51:58.530Z,16.50
2022-10-18T09:52:58.737Z,16.47
2022-10-18T09:53:58.879Z,16.47
2022-10-18T09:54:59.032Z,16.50
2022-10-18T09:55:59.251Z,16.50
2022-10-18T09:56:59.381Z,16.48
2022-10-18T09:57:59.620Z,16.47
2022-10-18T09:58:58.672Z,16.51
2022-10-18T09:59:58.844Z,16.54
2022-10-18T10:01:00.078Z,16.51
2022-10-18T10:01:58.146Z,16.48
2022-10-18T10:03:00.436Z,16.48
2022-10-18T10:04:00.577Z,16.54
2022-10-18T10:04:58.702Z,16.52
2022-10-18T10:05:58.798Z,16.52
2022-10-18T10:06:58.978Z,16.57
2022-10-18T10:07:59.137Z,16.54
2022-10-18T10:09:00.399Z,16.51
2022-10-18T10:10:00.477Z,16.48
2022-10-18T10:10:59.583Z,16.47
2022-10-18T10:11:58.716Z,16.47
2022-10-18T10:12:58.888Z,16.45
2022-10-18T10:13:59.052Z,16.47
2022-10-18T10:14:59.253Z,16.48
2022-10-18T10:15:58.337Z,16.47
2022-10-18T10:16:59.539Z,16.47
2022-10-18T10:18:00.674Z,16.48
2022-10-18T10:18:59.864Z,16.50
2022-10-18T10:20:01.072Z,16.48
2022-10-18T10:20:59.129Z,16.50
2022-10-18T10:21:58.250Z,16.51
2022-10-18T10:22:59.426Z,16.48
2022-10-18T10:24:04.823Z,16.52
2022-10-18T10:24:58.723Z,16.51
2022-10-18T10:26:05.149Z,16.48
2022-10-18T10:26:59.160Z,16.47
2022-10-18T10:27:58.161Z,16.48
2022-10-18T10:29:01.465Z,16.48
2022-10-18T10:30:01.510Z,16.51
2022-10-18T10:31:05.923Z,16.51
2022-10-18T10:31:59.786Z,16.50
2022-10-18T10:33:05.124Z,16.52
2022-10-18T10:33:58.992Z,16.51
2022-10-18T10:34:59.135Z,16.47
2022-10-18T10:35:58.202Z,16.42
2022-10-18T10:36:59.385Z,16.40
2022-10-18T10:37:58.451Z,16.37
2022-10-18T10:38:59.569Z,16.40
2022-10-18T10:40:17.364Z,16.40
2022-10-18T10:40:58.760Z,16.40
2022-10-18T10:41:57.891Z,16.40
2022-10-18T10:43:08.796Z,16.41
2022-10-18T10:43:59.116Z,16.42
2022-10-18T10:44:58.222Z,16.45
2022-10-18T10:45:58.325Z,16.45
2022-10-18T10:46:58.454Z,16.47
2022-10-18T10:47:58.613Z,16.42
2022-10-18T10:49:21.745Z,16.41
2022-10-18T10:50:00.785Z,16.41
2022-10-18T10:50:57.846Z,16.42
2022-10-18T10:52:08.585Z,16.45
2022-10-18T10:52:59.064Z,16.42
2022-10-18T10:53:59.206Z,16.40
2022-10-18T10:55:17.015Z,16.34
2022-10-18T10:56:04.597Z,16.37
2022-10-18T10:56:57.441Z,16.37
2022-10-18T10:57:57.565Z,16.40
2022-10-18T10:58:58.198Z,16.42
2022-10-18T10:59:57.818Z,16.45
2022-10-18T11:00:57.911Z,16.48
2022-10-18T11:01:58.023Z,16.50
2022-10-18T11:03:05.263Z,16.51
2022-10-18T11:03:59.313Z,16.52
2022-10-18T11:04:59.427Z,16.54
2022-10-18T11:06:04.785Z,16.51
2022-10-18T11:06:58.633Z,16.50
2022-10-18T11:07:57.778Z,16.50
2022-10-18T11:08:57.849Z,16.45
2022-10-18T11:09:58.002Z,16.48
2022-10-18T11:10:58.098Z,16.48
2022-10-18T11:11:58.233Z,16.45
2022-10-18T11:12:58.360Z,16.48
2022-10-18T11:14:13.572Z,16.48
2022-10-18T11:14:59.640Z,16.50
2022-10-18T11:15:57.687Z,16.52
2022-10-18T11:16:58.831Z,16.52
2022-10-18T11:17:57.956Z,16.51
2022-10-18T11:18:59.087Z,16.50
2022-10-18T11:19:59.230Z,16.50
2022-10-18T11:20:59.549Z,16.48
2022-10-18T11:21:58.440Z,16.45
2022-10-18T11:22:57.564Z,16.47
2022-10-18T11:23:58.675Z,16.47
2022-10-18T11:24:57.751Z,16.45
2022-10-18T11:25:58.902Z,16.44
2022-10-18T11:26:59.066Z,16.48
2022-10-18T11:27:58.055Z,16.48
2022-10-18T11:28:58.178Z,16.50
2022-10-18T11:29:58.283Z,16.52
2022-10-18T11:30:57.365Z,16.48
2022-10-18T11:31:57.464Z,16.44
2022-10-18T11:33:03.869Z,16.42
2022-10-18T11:34:08.779Z,16.40
2022-10-18T11:34:58.835Z,16.37
2022-10-18T11:36:04.211Z,16.36
2022-10-18T11:37:15.957Z,16.33
2022-10-18T11:37:59.218Z,16.34
2022-10-18T11:38:57.346Z,16.33
2022-10-18T11:39:57.412Z,16.36
2022-10-18T11:40:57.517Z,16.33
2022-10-18T11:41:57.643Z,16.33
2022-10-18T11:42:57.735Z,16.34
2022-10-18T11:44:02.634Z,16.36
2022-10-18T11:44:57.991Z,16.37
2022-10-18T11:46:04.329Z,16.41
2022-10-18T11:46:57.171Z,16.40
2022-10-18T11:47:57.275Z,16.41
2022-10-18T11:48:57.406Z,16.42
2022-10-18T11:49:57.531Z,16.44
2022-10-18T11:50:57.594Z,16.45
2022-10-18T11:52:07.851Z,16.45
2022-10-18T11:52:57.837Z,16.47
2022-10-18T11:53:56.926Z,16.51
2022-10-18T11:54:58.096Z,16.52
2022-10-18T11:55:57.175Z,16.54
2022-10-18T11:56:57.271Z,16.51
2022-10-18T11:57:58.465Z,16.48
2022-10-18T11:58:58.571Z,16.47
2022-10-18T11:59:58.787Z,16.47
2022-10-18T12:00:56.703Z,16.47
2022-10-18T12:02:12.373Z,16.42
2022-10-18T12:02:56.973Z,16.45
2022-10-18T12:03:57.026Z,16.44
2022-10-18T12:05:22.543Z,16.42
2022-10-18T12:05:59.363Z,16.41
2022-10-18T12:06:57.387Z,16.44
2022-10-18T12:07:56.468Z,16.45
2022-10-18T12:08:57.630Z,16.50
2022-10-18T12:09:57.761Z,16.54
2022-10-18T12:11:05.036Z,16.59
2022-10-18T12:11:58.039Z,16.62
2022-10-18T12:13:23.135Z,16.63
2022-10-18T12:13:57.197Z,16.63
2022-10-18T12:14:58.403Z,16.63
2022-10-18T12:15:56.406Z,16.69
2022-10-18T12:17:20.192Z,16.70
2022-10-18T12:18:05.919Z,16.73
2022-10-18T12:18:57.737Z,16.75
2022-10-18T12:19:56.788Z,16.77
2022-10-18T12:21:11.410Z,16.75
2022-10-18T12:21:58.344Z,16.84
2022-10-18T12:22:57.148Z,16.85
2022-10-18T12:23:57.253Z,16.90
2022-10-18T12:24:56.357Z,16.91
2022-10-18T12:25:56.541Z,16.88
2022-10-18T12:26:56.649Z,16.82
2022-10-18T12:27:57.915Z,16.77
2022-10-18T12:28:58.037Z,16.73
2022-10-18T12:29:57.072Z,16.69
2022-10-18T12:30:56.169Z,16.66
2022-10-18T12:31:57.359Z,16.67
2022-10-18T12:33:08.633Z,16.67
2022-10-18T12:33:57.549Z,16.67
2022-10-18T12:34:56.700Z,16.69
2022-10-18T12:35:56.821Z,16.67
2022-10-18T12:36:56.981Z,16.65
2022-10-18T12:37:57.061Z,16.67
2022-10-18T12:38:56.199Z,16.72
2022-10-18T12:40:14.575Z,16.72
2022-10-18T12:41:11.932Z,16.78
2022-10-18T12:41:57.326Z,16.81
2022-10-18T12:42:56.694Z,16.85
2022-10-18T12:43:57.343Z,16.85
2022-10-18T12:44:57.979Z,16.90
2022-10-18T12:45:56.011Z,16.92
2022-10-18T12:46:56.117Z,16.98
2022-10-18T12:48:03.492Z,16.99
2022-10-18T12:49:11.781Z,17.15
2022-10-18T12:49:56.483Z,17.20
2022-10-18T12:50:58.679Z,17.22
2022-10-18T12:51:56.754Z,17.27
2022-10-18T12:52:56.823Z,17.36
2022-10-18T12:53:57.966Z,17.42
2022-10-18T12:54:56.094Z,17.45